Time;durP1;ratioP1;P1;durP2;ratioP2;P2;SDS_P1;SDS_P2;PMS_P1;PMS_P2;Temp;Humidity;BMP_temperature;BMP_pressure;BME280_temperature;BME280_humidity;BME280_pressure;Samples;Min_cycle;Max_cycle;Signal;HPM_P1;HPM_P2
2021/01/21 00:00:14;;;;;;;24.43;22.07;;;;;;;;;;5013600;28;20465;-76
2021/01/21 00:02:41;;;;;;;22.73;21.25;;;;;;;;;;5015571;28;20445;-76
2021/01/21 00:05:10;;;;;;;23.37;21.87;;;;;;;;;;5017959;28;20189;-76
2021/01/21 00:07:36;;;;;;;25.07;23.30;;;;;;;;;;5018211;28;20451;-76
2021/01/21 00:10:04;;;;;;;22.67;20.97;;;;;;;;;;5017466;28;20486;-76
2021/01/21 00:12:31;;;;;;;22.47;21.00;;;;;;;;;;5017447;28;20835;-76
2021/01/21 00:14:58;;;;;;;22.70;21.30;;;;;;;;;;5017465;28;20469;-76
2021/01/21 00:17:25;;;;;;;22.03;20.60;;;;;;;;;;5017774;28;20440;-76
2021/01/21 00:19:52;;;;;;;22.60;21.20;;;;;;;;;;5017728;28;20430;-76
2021/01/21 00:22:19;;;;;;;22.23;20.90;;;;;;;;;;5017600;28;20415;-76
2021/01/21 00:24:46;;;;;;;23.00;21.20;;;;;;;;;;5017096;28;20931;-76
2021/01/21 00:27:13;;;;;;;22.50;21.10;;;;;;;;;;5017486;28;20442;-76
2021/01/21 00:29:40;;;;;;;22.02;20.63;;;;;;;;;;5017482;28;20461;-76
2021/01/21 00:32:07;;;;;;;23.27;21.80;;;;;;;;;;5017138;28;20677;-76
2021/01/21 00:34:34;;;;;;;22.80;21.37;;;;;;;;;;5017386;28;20454;-77
2021/01/21 00:37:01;;;;;;;23.07;21.57;;;;;;;;;;5017109;28;20458;-76
2021/01/21 00:39:28;;;;;;;22.20;20.80;;;;;;;;;;5017352;28;20435;-76
2021/01/21 00:41:55;;;;;;;22.43;21.03;;;;;;;;;;5017271;28;20457;-77
2021/01/21 00:44:22;;;;;;;22.13;20.83;;;;;;;;;;5017215;28;20421;-76
2021/01/21 00:46:49;;;;;;;22.30;20.90;;;;;;;;;;5017175;28;20478;-76
2021/01/21 00:49:16;;;;;;;22.00;20.70;;;;;;;;;;5016882;28;20490;-76
2021/01/21 00:51:43;;;;;;;22.97;21.47;;;;;;;;;;5017064;28;20439;-76
2021/01/21 00:54:10;;;;;;;22.40;20.75;;;;;;;;;;5016795;28;20880;-76
2021/01/21 00:56:38;;;;;;;23.27;21.70;;;;;;;;;;5017463;28;20205;-76
2021/01/21 00:59:05;;;;;;;22.20;20.83;;;;;;;;;;5016994;28;20418;-76
2021/01/21 01:01:32;;;;;;;22.60;21.20;;;;;;;;;;5016923;28;20414;-77
2021/01/21 01:03:58;;;;;;;22.00;20.70;;;;;;;;;;5016910;28;20599;-76
2021/01/21 01:06:25;;;;;;;23.00;21.30;;;;;;;;;;5016482;28;20410;-76
2021/01/21 01:08:52;;;;;;;23.70;22.20;;;;;;;;;;5016699;28;20470;-76
2021/01/21 01:11:19;;;;;;;23.10;21.57;;;;;;;;;;5016671;28;20518;-76
2021/01/21 01:13:47;;;;;;;23.30;21.90;;;;;;;;;;5015060;28;20411;-76
2021/01/21 01:16:13;;;;;;;22.97;21.47;;;;;;;;;;5016138;28;20989;-76
2021/01/21 01:18:40;;;;;;;23.07;21.10;;;;;;;;;;5016597;28;20452;-76
2021/01/21 01:21:07;;;;;;;22.50;20.90;;;;;;;;;;5016174;28;20908;-76
2021/01/21 01:23:34;;;;;;;22.30;21.00;;;;;;;;;;5016585;28;20411;-76
2021/01/21 01:26:01;;;;;;;22.70;21.10;;;;;;;;;;5016408;28;20458;-76
2021/01/21 01:28:28;;;;;;;22.37;21.07;;;;;;;;;;5016017;28;20483;-76
2021/01/21 01:30:56;;;;;;;23.00;21.63;;;;;;;;;;5016162;28;20457;-76
2021/01/21 01:33:23;;;;;;;23.30;21.70;;;;;;;;;;5016317;28;20446;-76
2021/01/21 01:35:50;;;;;;;23.47;21.93;;;;;;;;;;5016301;28;20421;-76
2021/01/21 01:38:17;;;;;;;22.57;21.27;;;;;;;;;;5016264;28;20448;-76
2021/01/21 01:40:44;;;;;;;22.63;21.33;;;;;;;;;;5015871;28;20976;-76
2021/01/21 01:43:11;;;;;;;22.83;21.40;;;;;;;;;;5016001;28;20196;-76
2021/01/21 01:45:37;;;;;;;23.27;21.40;;;;;;;;;;4998244;28;20223;-76
2021/01/21 01:48:06;;;;;;;23.83;22.13;;;;;;;;;;5016026;28;20447;-76
2021/01/21 01:50:33;;;;;;;22.70;21.30;;;;;;;;;;5015925;28;20775;-76
2021/01/21 01:53:00;;;;;;;23.33;21.83;;;;;;;;;;5015717;28;20407;-76
2021/01/21 01:55:27;;;;;;;23.40;21.90;;;;;;;;;;5015651;28;20443;-77
2021/01/21 01:57:54;;;;;;;23.23;21.63;;;;;;;;;;5015902;28;20418;-76
2021/01/21 02:00:22;;;;;;;22.90;21.50;;;;;;;;;;5015751;28;20440;-76
2021/01/21 02:02:49;;;;;;;23.93;22.53;;;;;;;;;;5015782;28;20444;-76
2021/01/21 02:05:17;;;;;;;23.40;21.97;;;;;;;;;;5015748;28;20530;-76
2021/01/21 02:07:44;;;;;;;24.20;22.70;;;;;;;;;;5015630;28;20426;-76
2021/01/21 02:10:12;;;;;;;23.83;22.33;;;;;;;;;;5015547;28;20548;-76
2021/01/21 02:12:53;;;;;;;23.27;21.67;;;;;;;;;;5015271;28;20472;-76
2021/01/21 02:15:26;;;;;;;23.30;21.70;;;;;;;;;;5015038;28;20901;-76
2021/01/21 02:17:57;;;;;;;23.47;21.87;;;;;;;;;;5015503;28;20486;-76
2021/01/21 02:20:42;;;;;;;24.10;22.40;;;;;;;;;;4997865;28;20414;-76
2021/01/21 02:23:43;;;;;;;23.43;21.90;;;;;;;;;;5014921;28;20422;-76
2021/01/21 02:26:11;;;;;;;23.80;22.40;;;;;;;;;;4997656;28;20454;-76
2021/01/21 02:28:53;;;;;;;23.70;22.27;;;;;;;;;;5014980;28;20533;-76
2021/01/21 02:31:28;;;;;;;24.00;22.50;;;;;;;;;;5015225;28;20411;-76
2021/01/21 02:33:57;;;;;;;23.47;21.80;;;;;;;;;;5015210;28;20440;-76
2021/01/21 02:36:31;;;;;;;24.50;22.67;;;;;;;;;;5014887;28;20475;-76
2021/01/21 02:38:59;;;;;;;24.13;22.37;;;;;;;;;;5014792;28;20476;-77
2021/01/21 02:41:26;;;;;;;23.67;22.13;;;;;;;;;;4997294;28;20423;-76
2021/01/21 02:43:54;;;;;;;23.90;22.50;;;;;;;;;;5014913;28;20451;-76
2021/01/21 02:46:21;;;;;;;23.73;21.93;;;;;;;;;;5014825;28;20479;-76
2021/01/21 02:48:49;;;;;;;24.25;22.55;;;;;;;;;;5014905;28;20476;-76
2021/01/21 02:51:19;;;;;;;23.30;21.90;;;;;;;;;;5015674;28;20200;-76
2021/01/21 02:53:48;;;;;;;23.53;21.90;;;;;;;;;;5014879;28;20435;-76
2021/01/21 02:56:17;;;;;;;23.70;22.20;;;;;;;;;;5014504;28;20457;-76
2021/01/21 02:58:44;;;;;;;24.03;22.43;;;;;;;;;;5014504;28;20421;-76
2021/01/21 03:01:11;;;;;;;23.87;22.33;;;;;;;;;;5014660;28;20464;-76
2021/01/21 03:03:39;;;;;;;23.23;21.57;;;;;;;;;;5014479;28;20430;-75
2021/01/21 03:06:06;;;;;;;22.77;21.37;;;;;;;;;;5014639;28;20421;-76
2021/01/21 03:08:34;;;;;;;23.40;21.80;;;;;;;;;;5014204;28;20474;-76
2021/01/21 03:11:07;;;;;;;22.80;21.30;;;;;;;;;;5014152;28;20208;-76
2021/01/21 03:13:34;;;;;;;23.17;21.77;;;;;;;;;;5014422;28;20267;-76
2021/01/21 03:16:01;;;;;;;23.27;21.87;;;;;;;;;;4996684;28;20488;-76
2021/01/21 03:18:28;;;;;;;23.95;22.35;;;;;;;;;;5014500;28;20771;-76
2021/01/21 03:20:55;;;;;;;22.83;21.53;;;;;;;;;;5014335;28;20206;-76
2021/01/21 03:23:22;;;;;;;22.83;21.23;;;;;;;;;;5014363;28;20468;-76
2021/01/21 03:25:50;;;;;;;22.52;21.08;;;;;;;;;;5014049;28;20425;-76
2021/01/21 03:28:17;;;;;;;24.40;22.90;;;;;;;;;;5014305;28;20565;-76
2021/01/21 03:30:43;;;;;;;22.48;21.08;;;;;;;;;;5014257;28;20193;-76
2021/01/21 03:33:10;;;;;;;22.50;21.20;;;;;;;;;;5013954;28;20204;-76
2021/01/21 03:35:37;;;;;;;23.10;21.80;;;;;;;;;;5014290;28;20437;-76
2021/01/21 03:38:04;;;;;;;22.60;21.30;;;;;;;;;;5013438;28;20450;-77
2021/01/21 03:40:31;;;;;;;22.50;21.17;;;;;;;;;;5013824;28;20193;-76
2021/01/21 03:42:59;;;;;;;23.38;21.52;;;;;;;;;;5013991;28;20187;-76
2021/01/21 03:45:26;;;;;;;22.70;21.30;;;;;;;;;;5013920;28;20298;-75
2021/01/21 03:47:52;;;;;;;22.60;21.10;;;;;;;;;;5014068;28;20189;-76
2021/01/21 03:50:19;;;;;;;22.93;21.60;;;;;;;;;;5013943;28;20319;-76
2021/01/21 03:52:46;;;;;;;23.00;21.60;;;;;;;;;;5013690;28;20411;-76
2021/01/21 03:55:13;;;;;;;23.23;21.77;;;;;;;;;;5014528;28;20415;-76
2021/01/21 03:57:40;;;;;;;22.50;21.10;;;;;;;;;;5013723;28;20406;-76
2021/01/21 04:00:08;;;;;;;23.37;22.07;;;;;;;;;;5013609;28;20897;-76
2021/01/21 04:02:35;;;;;;;22.93;21.50;;;;;;;;;;5013909;28;20448;-76
2021/01/21 04:05:02;;;;;;;22.70;21.30;;;;;;;;;;5013836;28;20448;-76
2021/01/21 04:07:29;;;;;;;23.20;21.70;;;;;;;;;;5013780;28;20443;-76
2021/01/21 04:09:56;;;;;;;22.65;21.15;;;;;;;;;;5013467;28;20463;-76
2021/01/21 04:12:23;;;;;;;22.70;21.30;;;;;;;;;;5013491;28;20196;-75
2021/01/21 04:14:49;;;;;;;22.70;21.30;;;;;;;;;;5013482;28;20544;-76
2021/01/21 04:17:17;;;;;;;22.60;21.30;;;;;;;;;;5013850;28;20272;-76
2021/01/21 04:19:44;;;;;;;22.70;21.00;;;;;;;;;;5013842;28;20443;-76
2021/01/21 04:22:11;;;;;;;22.57;21.17;;;;;;;;;;5013356;28;20200;-76
2021/01/21 04:24:38;;;;;;;23.10;21.60;;;;;;;;;;5013738;28;20438;-76
2021/01/21 04:27:05;;;;;;;21.90;20.50;;;;;;;;;;5013458;28;20674;-76
2021/01/21 04:29:32;;;;;;;21.90;20.63;;;;;;;;;;5013672;28;20220;-75
2021/01/21 04:31:59;;;;;;;23.23;21.73;;;;;;;;;;5013649;28;20439;-76
2021/01/21 04:34:27;;;;;;;22.60;21.30;;;;;;;;;;5014026;28;20502;-76
2021/01/21 04:36:53;;;;;;;23.77;22.10;;;;;;;;;;5013303;28;20438;-76
2021/01/21 04:39:20;;;;;;;21.80;20.50;;;;;;;;;;5013610;28;20215;-76
2021/01/21 04:41:47;;;;;;;22.90;21.55;;;;;;;;;;5013225;28;20455;-76
2021/01/21 04:44:14;;;;;;;23.10;21.70;;;;;;;;;;5013421;28;20212;-76
2021/01/21 04:46:41;;;;;;;22.03;20.63;;;;;;;;;;5013173;28;20478;-76
2021/01/21 04:49:09;;;;;;;22.37;20.97;;;;;;;;;;5015380;28;20483;-75
2021/01/21 04:51:37;;;;;;;21.73;20.33;;;;;;;;;;5016746;28;20792;-76
2021/01/21 04:54:04;;;;;;;22.00;20.70;;;;;;;;;;5017063;28;20468;-75
2021/01/21 04:56:35;;;;;;;22.20;20.90;;;;;;;;;;5017640;28;20418;-76
2021/01/21 04:59:03;;;;;;;22.40;21.00;;;;;;;;;;5016977;28;20444;-76
2021/01/21 05:01:30;;;;;;;22.90;21.50;;;;;;;;;;5016718;28;20413;-76
2021/01/21 05:03:57;;;;;;;22.00;20.70;;;;;;;;;;5016920;28;20432;-76
2021/01/21 05:06:24;;;;;;;23.10;21.70;;;;;;;;;;5016520;28;20485;-76
2021/01/21 05:08:52;;;;;;;22.70;21.17;;;;;;;;;;5016414;28;20482;-75
2021/01/21 05:11:19;;;;;;;22.70;21.30;;;;;;;;;;5016674;28;20497;-76
2021/01/21 05:13:46;;;;;;;22.20;20.90;;;;;;;;;;5016391;28;20427;-76
2021/01/21 05:16:13;;;;;;;22.57;21.17;;;;;;;;;;5016250;28;20446;-77
2021/01/21 05:18:41;;;;;;;22.30;21.00;;;;;;;;;;5016342;28;20423;-75
2021/01/21 05:21:08;;;;;;;22.47;21.17;;;;;;;;;;5016510;28;20406;-76
2021/01/21 05:23:35;;;;;;;23.07;21.60;;;;;;;;;;5016557;28;20907;-76
2021/01/21 05:26:03;;;;;;;23.17;21.60;;;;;;;;;;5016168;28;20410;-76
2021/01/21 05:28:30;;;;;;;22.03;20.70;;;;;;;;;;5016159;28;20435;-76
2021/01/21 05:30:59;;;;;;;23.00;21.50;;;;;;;;;;5016296;28;20812;-76
2021/01/21 05:33:28;;;;;;;22.87;20.93;;;;;;;;;;5016076;28;20925;-76
2021/01/21 05:35:55;;;;;;;22.30;20.90;;;;;;;;;;5015957;28;20756;-76
2021/01/21 05:38:22;;;;;;;21.90;20.50;;;;;;;;;;5016293;28;20418;-76
2021/01/21 05:40:49;;;;;;;22.93;21.53;;;;;;;;;;5016570;28;20774;-76
2021/01/21 05:43:17;;;;;;;22.70;21.10;;;;;;;;;;5016918;28;20485;-76
2021/01/21 05:45:45;;;;;;;22.50;21.20;;;;;;;;;;5016078;28;20449;-76
2021/01/21 05:48:13;;;;;;;22.73;21.43;;;;;;;;;;5015766;28;20786;-76
2021/01/21 05:50:40;;;;;;;23.00;21.50;;;;;;;;;;5015976;28;20430;-76
2021/01/21 05:53:08;;;;;;;21.80;20.50;;;;;;;;;;5015727;28;20414;-76
2021/01/21 05:55:37;;;;;;;22.73;21.40;;;;;;;;;;5015988;28;20464;-76
2021/01/21 05:58:04;;;;;;;23.73;22.33;;;;;;;;;;5015461;28;20817;-76
2021/01/21 06:00:33;;;;;;;22.80;21.50;;;;;;;;;;5014661;28;20821;-76
2021/01/21 06:03:01;;;;;;;22.73;21.33;;;;;;;;;;5015323;28;20835;-76
2021/01/21 06:05:28;;;;;;;22.80;21.40;;;;;;;;;;5015528;28;20443;-76
2021/01/21 06:07:55;;;;;;;23.10;21.70;;;;;;;;;;4998511;28;20423;-76
2021/01/21 06:10:22;;;;;;;23.03;21.53;;;;;;;;;;5015180;28;20461;-76
2021/01/21 06:12:51;;;;;;;23.30;22.00;;;;;;;;;;5015210;28;20419;-76
2021/01/21 06:15:18;;;;;;;22.80;21.50;;;;;;;;;;5015886;28;20855;-76
2021/01/21 06:17:47;;;;;;;22.63;21.23;;;;;;;;;;5015666;28;20466;-76
2021/01/21 06:20:14;;;;;;;22.40;21.00;;;;;;;;;;5015452;28;20447;-76
2021/01/21 06:22:42;;;;;;;22.80;21.30;;;;;;;;;;5015481;28;20399;-76
2021/01/21 06:25:12;;;;;;;22.73;21.27;;;;;;;;;;5015111;28;20449;-76
2021/01/21 06:27:40;;;;;;;23.17;21.87;;;;;;;;;;5015285;28;20469;-76
2021/01/21 06:30:08;;;;;;;22.40;21.10;;;;;;;;;;4997530;28;20462;-76
2021/01/21 06:32:39;;;;;;;22.53;21.03;;;;;;;;;;5014920;28;20411;-76
2021/01/21 06:35:07;;;;;;;23.07;21.67;;;;;;;;;;5015024;28;20402;-76
2021/01/21 06:37:37;;;;;;;22.37;20.83;;;;;;;;;;5015222;28;20554;-76
2021/01/21 06:40:07;;;;;;;22.97;21.37;;;;;;;;;;5015172;28;20447;-76
2021/01/21 06:42:36;;;;;;;21.70;20.30;;;;;;;;;;5015071;28;20514;-76
2021/01/21 06:45:04;;;;;;;22.07;20.57;;;;;;;;;;5014797;28;20451;-76
2021/01/21 06:47:31;;;;;;;21.27;20.07;;;;;;;;;;5014687;28;20438;-76
2021/01/21 06:49:59;;;;;;;22.00;20.80;;;;;;;;;;5014777;28;20871;-76
2021/01/21 06:52:27;;;;;;;22.53;20.93;;;;;;;;;;5014632;28;20937;-76
2021/01/21 06:54:55;;;;;;;54.70;51.10;;;;;;;;;;5014909;28;20448;-77
2021/01/21 06:57:40;;;;;;;52.87;49.00;;;;;;;;;;5014393;28;20440;-76
2021/01/21 07:00:08;;;;;;;43.35;40.70;;;;;;;;;;5014435;28;20417;-77
2021/01/21 07:02:42;;;;;;;47.23;44.53;;;;;;;;;;5014493;28;20666;-78
2021/01/21 07:05:13;;;;;;;43.85;41.35;;;;;;;;;;4997485;28;20430;-78
2021/01/21 07:07:59;;;;;;;43.33;40.78;;;;;;;;;;5014676;28;20212;-77
2021/01/21 07:10:31;;;;;;;42.50;40.10;;;;;;;;;;5014146;28;20213;-77
2021/01/21 07:12:59;;;;;;;45.75;43.20;;;;;;;;;;5014147;28;20185;-77
2021/01/21 07:15:43;;;;;;;43.88;41.47;;;;;;;;;;5014253;28;20240;-77
2021/01/21 07:18:18;;;;;;;49.75;46.95;;;;;;;;;;5014928;28;20206;-77
2021/01/21 07:21:05;;;;;;;45.72;43.13;;;;;;;;;;5014156;28;20250;-78
2021/01/21 07:23:36;;;;;;;45.55;42.95;;;;;;;;;;5015175;28;20207;-78
2021/01/21 07:26:16;;;;;;;46.90;44.25;;;;;;;;;;5014403;28;20552;-77
2021/01/21 07:28:51;;;;;;;45.85;43.25;;;;;;;;;;5014267;28;20192;-76
2021/01/21 07:31:18;;;;;;;47.10;44.50;;;;;;;;;;5013952;28;20386;-77
2021/01/21 07:33:45;;;;;;;47.60;45.10;;;;;;;;;;5014042;28;20428;-76
2021/01/21 07:36:27;;;;;;;49.30;46.70;;;;;;;;;;5014212;28;20270;-78
2021/01/21 07:38:55;;;;;;;48.35;45.75;;;;;;;;;;5014015;28;20199;-77
2021/01/21 07:41:40;;;;;;;47.15;44.65;;;;;;;;;;5014076;28;20192;-77
2021/01/21 07:44:07;;;;;;;48.92;46.42;;;;;;;;;;5013748;28;20191;-76
2021/01/21 07:46:34;;;;;;;50.03;47.42;;;;;;;;;;5013656;28;20315;-75
2021/01/21 07:49:19;;;;;;;49.05;46.45;;;;;;;;;;5013810;28;20224;-74
2021/01/21 07:51:46;;;;;;;49.65;46.95;;;;;;;;;;5013720;28;20195;-75
2021/01/21 07:54:14;;;;;;;49.60;46.90;;;;;;;;;;5014051;28;20188;-77
2021/01/21 07:56:41;;;;;;;49.38;46.78;;;;;;;;;;5013794;28;20191;-77
2021/01/21 07:59:07;;;;;;;48.05;45.55;;;;;;;;;;5014013;28;20195;-75
2021/01/21 08:01:34;;;;;;;47.58;44.95;;;;;;;;;;5013892;28;20186;-74
2021/01/21 08:04:06;;;;;;;46.85;44.35;;;;;;;;;;5013606;28;20204;-74
2021/01/21 08:06:33;;;;;;;48.33;45.63;;;;;;;;;;5013635;28;20195;-74
2021/01/21 08:09:12;;;;;;;46.58;44.05;;;;;;;;;;5013710;28;20222;-74
2021/01/21 08:11:39;;;;;;;46.83;44.33;;;;;;;;;;5013906;28;20685;-74
2021/01/21 08:14:06;;;;;;;47.45;45.05;;;;;;;;;;5013126;28;20660;-74
2021/01/21 08:16:33;;;;;;;49.28;46.78;;;;;;;;;;5013579;28;20238;-74
2021/01/21 08:19:00;;;;;;;47.25;44.85;;;;;;;;;;5013557;28;20205;-74
2021/01/21 08:21:28;;;;;;;47.85;45.35;;;;;;;;;;5013425;28;20193;-74
2021/01/21 08:23:55;;;;;;;49.28;46.60;;;;;;;;;;5015437;28;20203;-74
2021/01/21 08:26:23;;;;;;;48.30;45.90;;;;;;;;;;5000063;28;20717;-74
2021/01/21 08:28:51;;;;;;;45.83;43.47;;;;;;;;;;5017569;28;20259;-74
2021/01/21 08:31:19;;;;;;;49.25;46.75;;;;;;;;;;5017227;28;20202;-75
2021/01/21 08:33:50;;;;;;;46.85;44.45;;;;;;;;;;5017553;28;20291;-75
2021/01/21 08:36:22;;;;;;;46.97;44.67;;;;;;;;;;5017444;28;20554;-75
2021/01/21 08:38:49;;;;;;;46.10;43.90;;;;;;;;;;5017038;28;20192;-76
2021/01/21 08:41:18;;;;;;;46.22;44.00;;;;;;;;;;5017226;28;20215;-76
2021/01/21 08:43:46;;;;;;;38.63;36.55;;;;;;;;;;5016853;28;20230;-76
2021/01/21 08:46:14;;;;;;;35.80;34.10;;;;;;;;;;5017229;28;20228;-75
2021/01/21 08:48:41;;;;;;;36.15;34.35;;;;;;;;;;5016768;28;20189;-74
2021/01/21 08:51:23;;;;;;;35.13;33.22;;;;;;;;;;5017158;28;20191;-74
2021/01/21 08:53:50;;;;;;;37.05;35.35;;;;;;;;;;5017141;28;20278;-74
2021/01/21 08:56:16;;;;;;;34.38;32.38;;;;;;;;;;5016798;28;20192;-74
2021/01/21 08:58:43;;;;;;;34.35;32.45;;;;;;;;;;5017071;28;20204;-75
2021/01/21 09:01:11;;;;;;;34.40;32.15;;;;;;;;;;5016964;28;20534;-75
2021/01/21 09:03:45;;;;;;;33.17;31.30;;;;;;;;;;5015684;28;20651;-75
2021/01/21 09:06:12;;;;;;;36.55;34.85;;;;;;;;;;5016719;28;20209;-74
2021/01/21 09:08:49;;;;;;;34.28;32.58;;;;;;;;;;4999178;28;20559;-75
2021/01/21 09:11:29;;;;;;;33.35;31.65;;;;;;;;;;5016377;28;20193;-74
2021/01/21 09:13:56;;;;;;;34.75;33.25;;;;;;;;;;5017028;28;20203;-75
2021/01/21 09:16:38;;;;;;;31.95;30.25;;;;;;;;;;5015737;28;20235;-74
2021/01/21 09:19:05;;;;;;;28.60;27.10;;;;;;;;;;5016154;28;20231;-75
2021/01/21 09:21:32;;;;;;;26.67;25.38;;;;;;;;;;5015956;28;20197;-75
2021/01/21 09:24:06;;;;;;;27.25;25.85;;;;;;;;;;5016350;28;20647;-74
2021/01/21 09:26:33;;;;;;;26.77;25.48;;;;;;;;;;5016457;28;20188;-75
2021/01/21 09:29:00;;;;;;;25.20;23.65;;;;;;;;;;5016444;28;20220;-75
2021/01/21 09:31:29;;;;;;;24.38;23.05;;;;;;;;;;5016105;28;20206;-74
2021/01/21 09:33:55;;;;;;;24.90;23.05;;;;;;;;;;5015558;28;20675;-75
2021/01/21 09:36:27;;;;;;;23.48;22.05;;;;;;;;;;5015007;28;20287;-75
2021/01/21 09:38:55;;;;;;;22.02;20.92;;;;;;;;;;5015980;28;20258;-75
2021/01/21 09:41:22;;;;;;;22.75;21.35;;;;;;;;;;5016095;28;20189;-74
2021/01/21 09:43:48;;;;;;;22.17;20.58;;;;;;;;;;5015816;28;20195;-75
2021/01/21 09:46:15;;;;;;;23.23;21.48;;;;;;;;;;5015697;28;20235;-74
2021/01/21 09:48:43;;;;;;;23.48;21.63;;;;;;;;;;5015439;28;20200;-74
2021/01/21 09:51:10;;;;;;;22.20;20.77;;;;;;;;;;5015769;28;20231;-75
2021/01/21 09:53:38;;;;;;;21.70;20.40;;;;;;;;;;5015516;28;20550;-75
2021/01/21 09:56:05;;;;;;;21.25;19.85;;;;;;;;;;5018985;28;20637;-74
2021/01/21 09:58:31;;;;;;;21.88;20.38;;;;;;;;;;5035255;28;20190;-75
2021/01/21 10:00:58;;;;;;;21.98;20.55;;;;;;;;;;5035351;28;20194;-74
2021/01/21 10:03:25;;;;;;;21.90;20.17;;;;;;;;;;5035468;28;20196;-74
2021/01/21 10:05:52;;;;;;;21.88;20.08;;;;;;;;;;5035271;28;20192;-74
2021/01/21 10:08:19;;;;;;;22.30;20.70;;;;;;;;;;5017871;28;20652;-74
2021/01/21 10:10:47;;;;;;;22.05;20.60;;;;;;;;;;5035375;28;20226;-75
2021/01/21 10:13:13;;;;;;;22.85;21.25;;;;;;;;;;5035656;28;20264;-75
2021/01/21 10:15:40;;;;;;;24.60;22.50;;;;;;;;;;5034961;28;20250;-74
2021/01/21 10:18:07;;;;;;;23.50;21.40;;;;;;;;;;5035113;28;20666;-74
2021/01/21 10:20:35;;;;;;;23.95;22.35;;;;;;;;;;5027966;28;20264;-73
2021/01/21 10:23:02;;;;;;;23.17;21.48;;;;;;;;;;5024779;28;20201;-74
2021/01/21 10:25:28;;;;;;;23.80;22.10;;;;;;;;;;5025802;28;20534;-74
2021/01/21 10:27:56;;;;;;;22.48;20.77;;;;;;;;;;5029709;28;20680;-74
2021/01/21 10:30:23;;;;;;;23.05;21.58;;;;;;;;;;5035037;28;20227;-74
2021/01/21 10:32:50;;;;;;;22.55;20.85;;;;;;;;;;5034986;28;20193;-74
2021/01/21 10:35:17;;;;;;;23.60;21.70;;;;;;;;;;5031690;28;20520;-74
2021/01/21 10:37:44;;;;;;;23.27;21.67;;;;;;;;;;5017194;28;20487;-74
2021/01/21 10:40:12;;;;;;;22.80;21.10;;;;;;;;;;5015125;28;20280;-74
2021/01/21 10:42:38;;;;;;;23.02;21.52;;;;;;;;;;5015048;28;20251;-75
2021/01/21 10:45:07;;;;;;;23.00;21.10;;;;;;;;;;5014741;28;20225;-75
2021/01/21 10:47:34;;;;;;;22.02;20.52;;;;;;;;;;5029191;28;20791;-74
2021/01/21 10:50:01;;;;;;;23.02;21.23;;;;;;;;;;5053943;28;20226;-74
2021/01/21 10:52:27;;;;;;;22.70;20.90;;;;;;;;;;5054663;28;20188;-74
2021/01/21 10:54:54;;;;;;;23.10;21.20;;;;;;;;;;5054231;28;20573;-74
2021/01/21 10:57:22;;;;;;;22.23;20.83;;;;;;;;;;5054617;28;20447;-74
2021/01/21 10:59:48;;;;;;;23.70;21.43;;;;;;;;;;5036930;28;20593;-74
2021/01/21 11:02:16;;;;;;;23.25;21.30;;;;;;;;;;5054394;28;20489;-74
2021/01/21 11:04:43;;;;;;;23.90;21.70;;;;;;;;;;5054358;28;20202;-74
2021/01/21 11:07:10;;;;;;;23.20;21.60;;;;;;;;;;5054056;28;20200;-74
2021/01/21 11:09:37;;;;;;;22.60;20.85;;;;;;;;;;5053887;28;20216;-74
2021/01/21 11:12:04;;;;;;;23.83;22.00;;;;;;;;;;5053912;28;20196;-75
2021/01/21 11:14:32;;;;;;;22.00;20.50;;;;;;;;;;5054220;28;20563;-74
2021/01/21 11:16:59;;;;;;;22.30;20.85;;;;;;;;;;5051733;28;20243;-74
2021/01/21 11:19:27;;;;;;;22.20;20.70;;;;;;;;;;5054132;28;20188;-74
2021/01/21 11:21:54;;;;;;;22.80;21.03;;;;;;;;;;5054129;28;20804;-74
2021/01/21 11:24:21;;;;;;;22.52;21.13;;;;;;;;;;5053806;28;20443;-74
2021/01/21 11:26:48;;;;;;;22.45;21.05;;;;;;;;;;5053762;28;20188;-74
2021/01/21 11:29:15;;;;;;;22.83;21.15;;;;;;;;;;5053627;28;20214;-74
2021/01/21 11:31:42;;;;;;;21.40;20.05;;;;;;;;;;5041062;28;20552;-73
2021/01/21 11:34:09;;;;;;;22.50;20.83;;;;;;;;;;5034059;28;20614;-73
2021/01/21 11:36:36;;;;;;;22.83;20.90;;;;;;;;;;5033683;28;20911;-74
2021/01/21 11:39:03;;;;;;;22.70;21.10;;;;;;;;;;5016252;28;20418;-74
2021/01/21 11:41:30;;;;;;;22.40;20.40;;;;;;;;;;5033581;28;20231;-74
2021/01/21 11:43:57;;;;;;;22.40;20.83;;;;;;;;;;5033748;28;20774;-74
2021/01/21 11:46:24;;;;;;;23.17;21.47;;;;;;;;;;5033878;28;20219;-74
2021/01/21 11:48:52;;;;;;;22.30;20.80;;;;;;;;;;5033448;28;20459;-74
2021/01/21 11:51:19;;;;;;;23.05;21.17;;;;;;;;;;5033825;28;20424;-74
2021/01/21 11:53:47;;;;;;;21.70;20.07;;;;;;;;;;5033474;28;20195;-74
2021/01/21 11:56:14;;;;;;;21.20;19.50;;;;;;;;;;5033748;28;20777;-74
2021/01/21 11:58:41;;;;;;;24.00;21.30;;;;;;;;;;5032614;28;20197;-74
2021/01/21 12:01:07;;;;;;;23.00;21.00;;;;;;;;;;5033024;28;20447;-74
2021/01/21 12:03:34;;;;;;;22.57;20.77;;;;;;;;;;5033933;28;20546;-74
2021/01/21 12:06:01;;;;;;;23.10;21.70;;;;;;;;;;5033587;28;20434;-74
2021/01/21 12:08:28;;;;;;;23.13;21.53;;;;;;;;;;5033372;28;20203;-74
2021/01/21 12:10:56;;;;;;;24.05;21.95;;;;;;;;;;5033432;28;20465;-75
2021/01/21 12:13:22;;;;;;;23.55;22.05;;;;;;;;;;5033488;28;20254;-74
2021/01/21 12:15:49;;;;;;;23.45;22.05;;;;;;;;;;5033105;28;20236;-74
2021/01/21 12:18:16;;;;;;;23.38;21.98;;;;;;;;;;5033301;28;20192;-75
2021/01/21 12:20:43;;;;;;;22.80;21.20;;;;;;;;;;5033476;28;20193;-75
2021/01/21 12:23:11;;;;;;;23.35;21.85;;;;;;;;;;5033247;28;20446;-74
2021/01/21 12:25:38;;;;;;;21.98;20.45;;;;;;;;;;5033766;28;20199;-74
2021/01/21 12:28:06;;;;;;;22.43;20.83;;;;;;;;;;5033255;28;20191;-75
2021/01/21 12:30:33;;;;;;;22.00;20.65;;;;;;;;;;5033552;28;20836;-74
2021/01/21 12:33:00;;;;;;;22.15;20.75;;;;;;;;;;5034192;28;20204;-74
2021/01/21 12:35:26;;;;;;;22.85;21.40;;;;;;;;;;5033758;28;20185;-74
2021/01/21 12:37:53;;;;;;;23.90;22.10;;;;;;;;;;5033204;28;20196;-75
2021/01/21 12:40:20;;;;;;;22.50;20.70;;;;;;;;;;5033318;28;20446;-75
2021/01/21 12:42:47;;;;;;;24.40;22.73;;;;;;;;;;5033061;28;20495;-75
2021/01/21 12:45:15;;;;;;;23.92;22.13;;;;;;;;;;5032849;28;20228;-75
2021/01/21 12:47:42;;;;;;;22.77;21.27;;;;;;;;;;5015901;28;20541;-74
2021/01/21 12:50:09;;;;;;;23.85;21.83;;;;;;;;;;5032954;28;20218;-75
2021/01/21 12:52:36;;;;;;;23.33;21.60;;;;;;;;;;5032963;28;20197;-74
2021/01/21 12:55:04;;;;;;;24.73;22.42;;;;;;;;;;5033281;28;20451;-75
2021/01/21 12:57:31;;;;;;;22.52;21.02;;;;;;;;;;5033326;28;20215;-75
2021/01/21 12:59:58;;;;;;;23.15;21.55;;;;;;;;;;5033135;28;20633;-75
2021/01/21 13:02:27;;;;;;;22.48;21.17;;;;;;;;;;5033182;28;20189;-75
2021/01/21 13:04:54;;;;;;;23.23;21.80;;;;;;;;;;5031470;28;20194;-75
2021/01/21 13:07:21;;;;;;;23.53;21.73;;;;;;;;;;5032815;28;20199;-74
2021/01/21 13:09:48;;;;;;;22.58;20.92;;;;;;;;;;5034484;28;20540;-74
2021/01/21 13:12:15;;;;;;;22.27;20.55;;;;;;;;;;5036237;28;20189;-74
2021/01/21 13:14:42;;;;;;;23.30;21.53;;;;;;;;;;5018521;28;20250;-74
2021/01/21 13:17:09;;;;;;;23.60;21.57;;;;;;;;;;5035932;28;20468;-74
2021/01/21 13:19:36;;;;;;;23.33;21.73;;;;;;;;;;5036006;28;20417;-74
2021/01/21 13:22:04;;;;;;;22.92;20.98;;;;;;;;;;5036106;28;20271;-74
2021/01/21 13:24:31;;;;;;;22.53;21.13;;;;;;;;;;5036404;28;20231;-74
2021/01/21 13:26:58;;;;;;;23.15;21.65;;;;;;;;;;5036020;28;20420;-75
2021/01/21 13:29:25;;;;;;;23.13;21.53;;;;;;;;;;5036186;28;20224;-74
2021/01/21 13:31:51;;;;;;;24.02;22.38;;;;;;;;;;5045986;28;20403;-74
2021/01/21 13:34:18;;;;;;;23.50;22.00;;;;;;;;;;5056149;28;20241;-75
2021/01/21 13:36:46;;;;;;;24.47;22.80;;;;;;;;;;5055809;28;20412;-74
2021/01/21 13:39:15;;;;;;;24.17;22.67;;;;;;;;;;5054510;28;20414;-74
2021/01/21 13:41:42;;;;;;;24.00;22.40;;;;;;;;;;5056080;28;20440;-74
2021/01/21 13:44:09;;;;;;;23.73;22.30;;;;;;;;;;5055339;28;20470;-74
2021/01/21 13:46:36;;;;;;;24.40;22.80;;;;;;;;;;5056339;28;20456;-74
2021/01/21 13:49:03;;;;;;;24.85;23.35;;;;;;;;;;5055703;28;20451;-74
2021/01/21 13:51:31;;;;;;;22.80;21.50;;;;;;;;;;5055803;28;20203;-75
2021/01/21 13:53:59;;;;;;;24.30;23.00;;;;;;;;;;5055833;28;20192;-74
2021/01/21 13:56:25;;;;;;;23.03;21.67;;;;;;;;;;5055429;28;20866;-74
2021/01/21 13:58:52;;;;;;;24.67;23.17;;;;;;;;;;5055657;28;20442;-74
2021/01/21 14:01:19;;;;;;;24.25;22.50;;;;;;;;;;5055602;28;20203;-74
2021/01/21 14:03:46;;;;;;;22.67;21.27;;;;;;;;;;5055231;28;20191;-74
2021/01/21 14:06:13;;;;;;;23.70;22.30;;;;;;;;;;5055278;28;20443;-74
2021/01/21 14:08:39;;;;;;;24.50;22.58;;;;;;;;;;5055001;28;20195;-74
2021/01/21 14:11:07;;;;;;;23.90;22.40;;;;;;;;;;5055034;28;20577;-74
2021/01/21 14:13:34;;;;;;;25.70;24.00;;;;;;;;;;5055268;28;20441;-74
2021/01/21 14:16:01;;;;;;;24.50;22.60;;;;;;;;;;5054829;28;20893;-75
2021/01/21 14:18:28;;;;;;;23.60;22.20;;;;;;;;;;5055306;28;20419;-74
2021/01/21 14:20:54;;;;;;;23.92;22.42;;;;;;;;;;5054191;28;20493;-75